Time;durP1;ratioP1;P1;durP2;ratioP2;P2;SDS_P1;SDS_P2;PMS_P1;PMS_P2;Temp;Humidity;BMP_temperature;BMP_pressure;BME280_temperature;BME280_humidity;BME280_pressure;Samples;Min_cycle;Max_cycle;Signal;HPM_P1;HPM_P2
2022/11/23 00:00:18;;;;;;;95.90;41.50;;;;;;;1.71;92.32;99235.23;103088;1305;22887;-59
2022/11/23 00:03:13;;;;;;;82.20;37.40;;;;;;;1.68;92.09;99230.86;102979;1285;22516;-60
2022/11/23 00:05:46;;;;;;;97.90;41.30;;;;;;;1.63;92.04;99231.64;103146;1282;22458;-59
2022/11/23 00:08:18;;;;;;;108.10;45.60;;;;;;;1.62;92.10;99229.48;103083;1278;25405;-60
2022/11/23 00:10:49;;;;;;;120.10;50.90;;;;;;;1.61;92.19;99227.22;103197;1306;22469;-60
2022/11/23 00:13:20;;;;;;;116.60;47.70;;;;;;;1.61;92.29;99228.63;103146;1285;22545;-58
2022/11/23 00:15:52;;;;;;;103.90;43.90;;;;;;;1.62;92.28;99226.41;103112;1281;22484;-58
2022/11/23 00:18:23;;;;;;;91.60;41.60;;;;;;;1.61;92.14;99225.36;103055;1274;22721;-59
2022/11/23 00:20:56;;;;;;;97.50;45.80;;;;;;;1.59;92.07;99225.97;103147;1282;22607;-58
2022/11/23 00:23:27;;;;;;;101.30;46.60;;;;;;;1.56;92.04;99233.45;103041;1274;22472;-60
2022/11/23 00:26:00;;;;;;;136.00;55.30;;;;;;;1.55;92.07;99234.83;103152;1275;25364;-58
2022/11/23 00:28:33;;;;;;;162.90;62.90;;;;;;;1.52;92.14;99239.02;102990;1284;22486;-59
2022/11/23 00:31:05;;;;;;;174.20;65.30;;;;;;;1.51;92.07;99238.96;103128;1305;26072;-57
2022/11/23 00:33:37;;;;;;;172.90;66.50;;;;;;;1.50;92.22;99238.77;103082;1304;26731;-59
2022/11/23 00:36:12;;;;;;;173.90;68.20;;;;;;;1.51;92.24;99241.57;103120;1282;24398;-59
2022/11/23 00:38:44;;;;;;;166.20;63.80;;;;;;;1.51;92.30;99237.32;103139;1305;22534;-58
2022/11/23 00:41:17;;;;;;;113.60;49.40;;;;;;;1.50;92.31;99243.64;103076;1282;25641;-59
2022/11/23 00:43:49;;;;;;;107.80;46.30;;;;;;;1.49;92.46;99246.65;103225;1306;22470;-59
2022/11/23 00:46:22;;;;;;;98.30;44.80;;;;;;;1.49;92.54;99250.16;103389;1281;25312;-60
2022/11/23 00:48:55;;;;;;;93.20;42.00;;;;;;;1.50;92.53;99249.75;103168;1306;25373;-58
2022/11/23 00:51:29;;;;;;;89.40;41.20;;;;;;;1.50;92.51;99247.95;103386;1282;24391;-58
2022/11/23 00:54:02;;;;;;;95.00;41.90;;;;;;;1.50;92.51;99244.04;103160;1289;22597;-61
2022/11/23 00:56:35;;;;;;;86.20;40.80;;;;;;;1.50;92.45;99246.85;103092;1284;22599;-59
2022/11/23 00:59:07;;;;;;;84.60;37.30;;;;;;;1.48;92.43;99242.11;103121;1274;25504;-60
2022/11/23 01:01:39;;;;;;;79.60;36.40;;;;;;;1.41;92.32;99236.92;103166;1305;22613;-60
2022/11/23 01:04:11;;;;;;;75.70;34.10;;;;;;;1.36;92.53;99239.36;103150;1284;22482;-61
2022/11/23 01:06:42;;;;;;;77.00;34.70;;;;;;;1.35;92.60;99235.92;103146;1306;23210;-59
2022/11/23 01:09:16;;;;;;;73.60;33.70;;;;;;;1.37;92.84;99236.83;103222;1305;22519;-59
2022/11/23 01:11:48;;;;;;;77.20;36.30;;;;;;;1.38;93.13;99237.34;103279;1282;25516;-60
2022/11/23 01:14:22;;;;;;;78.60;37.00;;;;;;;1.39;93.12;99239.11;103233;1278;22492;-60
2022/11/23 01:16:55;;;;;;;77.50;34.80;;;;;;;1.39;93.07;99239.35;103194;1274;22467;-58
2022/11/23 01:19:26;;;;;;;79.60;37.10;;;;;;;1.41;93.20;99241.58;103115;1290;26569;-59
2022/11/23 01:22:00;;;;;;;91.50;40.50;;;;;;;1.41;93.18;99241.70;103251;1306;22472;-60
2022/11/23 01:24:31;;;;;;;92.70;42.60;;;;;;;1.41;93.13;99243.44;103110;1282;22590;-60
2022/11/23 01:27:03;;;;;;;103.60;44.00;;;;;;;1.41;93.25;99242.48;103177;1290;23206;-57
2022/11/23 01:29:34;;;;;;;102.20;43.60;;;;;;;1.42;93.24;99245.48;103152;1282;22476;-59
2022/11/23 01:32:06;;;;;;;78.30;38.10;;;;;;;1.40;93.23;99246.05;103196;1281;24343;-59
2022/11/23 01:34:37;;;;;;;80.10;35.10;;;;;;;1.36;93.24;99249.68;103281;1289;24322;-56
2022/11/23 01:37:10;;;;;;;82.40;37.30;;;;;;;1.30;93.34;99249.22;103231;1282;22937;-58
2022/11/23 01:39:42;;;;;;;81.40;37.10;;;;;;;1.31;93.49;99251.94;103152;1305;25428;-60
2022/11/23 01:42:13;;;;;;;83.50;35.70;;;;;;;1.31;93.54;99252.80;103223;1282;22471;-58
2022/11/23 01:44:45;;;;;;;82.30;35.30;;;;;;;1.33;93.63;99254.00;103023;1277;22457;-59
2022/11/23 01:47:16;;;;;;;79.20;37.10;;;;;;;1.35;93.66;99250.77;103258;1282;22480;-59
2022/11/23 01:49:52;;;;;;;80.60;35.30;;;;;;;1.38;93.72;99252.82;103115;1305;22610;-59
2022/11/23 01:52:26;;;;;;;78.50;34.80;;;;;;;1.40;93.71;99252.45;103168;1284;25316;-59
2022/11/23 01:54:59;;;;;;;80.10;35.50;;;;;;;1.40;93.69;99250.00;103033;1305;23250;-59
2022/11/23 01:57:35;;;;;;;72.50;33.70;;;;;;;1.42;93.71;99258.41;103313;1274;22470;-58
2022/11/23 02:00:09;;;;;;;82.80;35.50;;;;;;;1.43;93.74;99260.03;103189;1287;22481;-61
2022/11/23 02:02:52;;;;;;;80.60;35.20;;;;;;;1.45;93.82;99265.00;103173;1292;24299;-58
2022/11/23 02:05:27;;;;;;;80.70;35.20;;;;;;;1.46;93.76;99267.09;103153;1275;22480;-59
2022/11/23 02:08:00;;;;;;;77.20;35.00;;;;;;;1.46;93.85;99265.77;103072;1284;22428;-60
2022/11/23 02:10:34;;;;;;;88.70;38.10;;;;;;;1.47;93.81;99262.57;102987;1282;25241;-59
2022/11/23 02:13:08;;;;;;;85.00;37.60;;;;;;;1.47;93.70;99264.99;103102;1306;25357;-60
2022/11/23 02:15:40;;;;;;;105.10;44.00;;;;;;;1.44;93.60;99266.29;103145;1300;22473;-59
2022/11/23 02:18:16;;;;;;;108.70;46.70;;;;;;;1.39;93.64;99265.66;103006;1298;25288;-58
2022/11/23 02:20:50;;;;;;;105.50;46.30;;;;;;;1.39;93.75;99257.05;103159;1277;22490;-58
2022/11/23 02:23:32;;;;;;;87.30;40.20;;;;;;;1.39;93.81;99259.21;103141;1275;22625;-59
2022/11/23 02:26:08;;;;;;;85.60;37.60;;;;;;;1.38;93.78;99257.92;103134;1282;25389;-59
2022/11/23 02:28:43;;;;;;;84.30;39.10;;;;;;;1.40;93.84;99259.44;103126;1282;25311;-60
2022/11/23 02:31:15;;;;;;;83.10;39.60;;;;;;;1.42;93.91;99264.92;103197;1282;22487;-60
2022/11/23 02:33:46;;;;;;;81.70;38.70;;;;;;;1.43;93.90;99264.34;103456;1284;22554;-59
2022/11/23 02:36:40;;;;;;;93.20;42.70;;;;;;;1.44;93.79;99261.34;103044;1284;22472;-59
2022/11/23 02:39:13;;;;;;;87.20;40.80;;;;;;;1.45;93.84;99265.09;103018;1290;22464;-59
2022/11/23 02:41:47;;;;;;;90.60;42.10;;;;;;;1.46;93.81;99263.71;103118;1291;22496;-58
2022/11/23 02:44:30;;;;;;;89.10;43.80;;;;;;;1.46;93.88;99262.61;103278;1281;25550;-60
2022/11/23 02:47:02;;;;;;;82.90;38.50;;;;;;;1.44;93.90;99269.74;103166;1282;22549;-57
2022/11/23 02:49:34;;;;;;;85.90;41.70;;;;;;;1.45;93.99;99268.29;103190;1284;23546;-56
2022/11/23 02:52:07;;;;;;;97.30;41.80;;;;;;;1.46;94.07;99267.09;103271;1306;25370;-61
2022/11/23 02:54:39;;;;;;;94.00;41.30;;;;;;;1.47;94.09;99271.00;103226;1278;25356;-58
2022/11/23 02:57:10;;;;;;;93.40;42.30;;;;;;;1.47;93.99;99266.51;103241;1275;22479;-58
2022/11/23 02:59:42;;;;;;;85.00;39.70;;;;;;;1.47;94.00;99267.61;103178;1275;24411;-59
2022/11/23 03:02:13;;;;;;;87.40;40.80;;;;;;;1.49;94.13;99264.88;103060;1282;22459;-60
2022/11/23 03:04:48;;;;;;;85.70;39.50;;;;;;;1.51;94.17;99262.13;103133;1282;22591;-60
2022/11/23 03:07:20;;;;;;;93.30;41.50;;;;;;;1.51;94.15;99260.95;103142;1282;22472;-59
2022/11/23 03:09:52;;;;;;;88.40;41.20;;;;;;;1.49;94.08;99262.76;103030;1305;22464;-60
2022/11/23 03:12:24;;;;;;;90.80;40.90;;;;;;;1.47;94.11;99264.68;103128;1275;24214;-60
2022/11/23 03:14:55;;;;;;;92.80;41.70;;;;;;;1.47;94.13;99261.56;103197;1282;25247;-58
2022/11/23 03:17:27;;;;;;;87.50;40.10;;;;;;;1.45;94.08;99258.95;103131;1306;22477;-59
2022/11/23 03:19:59;;;;;;;92.10;42.60;;;;;;;1.47;94.24;99260.85;103230;1291;24450;-58
2022/11/23 03:22:30;;;;;;;84.70;42.10;;;;;;;1.47;94.27;99262.11;103172;1306;23559;-58
2022/11/23 03:25:02;;;;;;;95.20;41.40;;;;;;;1.47;94.31;99263.52;103120;1306;25472;-60
2022/11/23 03:27:34;;;;;;;84.40;41.30;;;;;;;1.48;94.31;99263.09;103173;1290;22487;-59
2022/11/23 03:30:08;;;;;;;92.20;41.10;;;;;;;1.48;94.32;99266.25;103047;1281;22484;-60
2022/11/23 03:32:40;;;;;;;83.70;40.90;;;;;;;1.49;94.35;99265.74;103145;1282;22552;-60
2022/11/23 03:35:11;;;;;;;81.00;38.40;;;;;;;1.50;94.36;99264.23;103215;1275;24325;-58
2022/11/23 03:37:44;;;;;;;90.50;40.30;;;;;;;1.51;94.39;99264.89;103105;1298;22537;-59
2022/11/23 03:40:16;;;;;;;79.50;37.60;;;;;;;1.50;94.28;99263.81;103198;1282;22918;-60
2022/11/23 03:42:48;;;;;;;76.90;37.20;;;;;;;1.49;94.28;99264.80;103342;1285;24381;-60
2022/11/23 03:45:21;;;;;;;120.80;49.10;;;;;;;1.48;94.30;99268.30;103087;1282;24244;-58
2022/11/23 03:47:53;;;;;;;126.60;50.60;;;;;;;1.46;94.22;99267.73;103114;1305;25284;-60
2022/11/23 03:50:25;;;;;;;132.10;54.30;;;;;;;1.46;94.23;99266.08;103071;1280;22469;-59
2022/11/23 03:52:56;;;;;;;108.20;44.90;;;;;;;1.45;94.30;99264.37;103131;1282;25354;-58
2022/11/23 03:55:28;;;;;;;107.20;43.70;;;;;;;1.44;94.09;99257.96;103312;1281;25441;-60
2022/11/23 03:58:00;;;;;;;96.00;39.00;;;;;;;1.43;94.17;99259.23;103341;1306;22470;-59
2022/11/23 04:00:33;;;;;;;97.40;41.00;;;;;;;1.43;94.25;99260.82;103509;1298;22395;-59
2022/11/23 04:03:06;;;;;;;88.60;40.10;;;;;;;1.42;94.20;99256.05;103303;1282;26554;-61
2022/11/23 04:05:38;;;;;;;113.80;56.10;;;;;;;1.42;94.25;99252.84;103244;1299;22613;-59
2022/11/23 04:08:09;;;;;;;120.60;66.10;;;;;;;1.42;94.33;99253.48;103397;1282;26624;-61
2022/11/23 04:10:41;;;;;;;126.40;70.90;;;;;;;1.41;94.33;99251.52;103166;1305;25410;-59
2022/11/23 04:13:13;;;;;;;104.30;53.60;;;;;;;1.42;94.39;99251.44;103238;1284;22479;-61
2022/11/23 04:15:44;;;;;;;93.30;46.40;;;;;;;1.43;94.53;99249.27;103166;1290;22464;-60
2022/11/23 04:18:16;;;;;;;83.70;40.90;;;;;;;1.45;94.48;99246.63;103198;1280;22596;-58
2022/11/23 04:20:47;;;;;;;82.50;39.00;;;;;;;1.47;94.61;99253.23;103220;1282;22479;-58
2022/11/23 04:23:19;;;;;;;92.90;43.60;;;;;;;1.49;94.62;99253.80;103227;1282;22473;-59
2022/11/23 04:25:50;;;;;;;97.60;47.30;;;;;;;1.48;94.55;99253.44;103177;1282;22602;-58
2022/11/23 04:28:22;;;;;;;134.70;64.20;;;;;;;1.48;94.53;99242.42;103339;1281;22473;-56
2022/11/23 04:30:54;;;;;;;147.60;73.10;;;;;;;1.48;94.58;99242.67;103222;1282;25336;-58
2022/11/23 04:33:27;;;;;;;133.30;63.60;;;;;;;1.50;94.63;99244.98;103486;1278;24907;-57
2022/11/23 04:35:58;;;;;;;112.00;51.90;;;;;;;1.49;94.60;99245.23;103213;1282;22519;-56
2022/11/23 04:38:30;;;;;;;93.30;44.70;;;;;;;1.51;94.63;99246.36;103143;1281;24389;-60
2022/11/23 04:41:02;;;;;;;93.50;42.20;;;;;;;1.49;94.56;99245.27;103264;1281;23101;-63
2022/11/23 04:43:33;;;;;;;85.60;40.70;;;;;;;1.49;94.61;99246.25;103132;1282;22490;-61
2022/11/23 04:46:05;;;;;;;83.70;41.90;;;;;;;1.47;94.57;99248.18;103239;1306;22505;-61
2022/11/23 04:48:36;;;;;;;85.70;38.00;;;;;;;1.48;94.61;99245.04;103146;1306;25211;-60
2022/11/23 04:51:10;;;;;;;83.10;40.20;;;;;;;1.46;94.58;99241.55;103101;1305;22474;-62
2022/11/23 04:53:41;;;;;;;83.70;38.80;;;;;;;1.46;94.70;99240.39;103065;1290;22468;-59
2022/11/23 04:56:13;;;;;;;79.50;36.40;;;;;;;1.47;94.77;99247.65;103200;1282;22458;-63
2022/11/23 04:58:44;;;;;;;86.40;36.70;;;;;;;1.46;94.81;99247.52;103304;1274;22500;-64
2022/11/23 05:01:16;;;;;;;75.50;36.20;;;;;;;1.44;94.74;99247.58;103222;1290;23201;-64
2022/11/23 05:03:47;;;;;;;82.20;37.60;;;;;;;1.41;94.68;99245.54;103090;1282;22734;-59
2022/11/23 05:06:19;;;;;;;75.40;34.10;;;;;;;1.41;94.87;99251.20;103097;1281;22464;-57
2022/11/23 05:08:51;;;;;;;83.60;35.20;;;;;;;1.41;94.78;99252.33;103169;1297;25341;-58
2022/11/23 05:11:22;;;;;;;73.10;34.70;;;;;;;1.41;94.95;99252.95;105461;1284;22454;-61
2022/11/23 05:13:53;;;;;;;80.40;36.90;;;;;;;1.43;95.07;99254.38;103730;1281;22578;-58
2022/11/23 05:16:25;;;;;;;82.70;37.80;;;;;;;1.46;95.09;99259.92;105385;1282;22508;-59
2022/11/23 05:18:57;;;;;;;82.70;38.50;;;;;;;1.49;95.14;99260.66;103063;1291;25439;-59
2022/11/23 05:21:28;;;;;;;81.50;37.60;;;;;;;1.52;95.23;99261.80;103343;1284;22480;-58
2022/11/23 05:24:01;;;;;;;80.40;37.00;;;;;;;1.53;95.15;99260.20;103153;1306;22472;-59
2022/11/23 05:26:32;;;;;;;76.20;35.50;;;;;;;1.56;95.16;99265.23;104043;1282;25287;-59
2022/11/23 05:29:03;;;;;;;78.20;35.30;;;;;;;1.57;95.01;99259.05;103522;1281;24615;-61
2022/11/23 05:31:35;;;;;;;80.90;34.00;;;;;;;1.57;95.03;99255.88;103160;1290;22468;-59
2022/11/23 05:34:07;;;;;;;73.80;34.40;;;;;;;1.59;95.04;99256.23;103068;1274;23088;-59
2022/11/23 05:36:39;;;;;;;82.20;37.70;;;;;;;1.61;95.12;99259.16;103071;1299;24283;-58
2022/11/23 05:39:13;;;;;;;77.00;35.90;;;;;;;1.62;94.97;99258.89;103141;1298;25332;-59
2022/11/23 05:41:44;;;;;;;82.60;38.20;;;;;;;1.62;94.99;99260.05;102966;1275;22512;-61
2022/11/23 05:44:16;;;;;;;79.30;35.70;;;;;;;1.61;94.94;99265.83;103116;1282;25150;-60
2022/11/23 05:46:47;;;;;;;73.50;35.90;;;;;;;1.60;94.96;99262.17;103267;1278;25006;-58
2022/11/23 05:49:19;;;;;;;81.60;36.80;;;;;;;1.58;95.00;99257.57;103152;1297;24011;-60
2022/11/23 05:51:51;;;;;;;76.80;36.70;;;;;;;1.59;95.09;99253.55;103170;1303;22704;-61
2022/11/23 05:54:24;;;;;;;77.40;36.50;;;;;;;1.58;95.06;99254.69;103162;1291;25603;-60
2022/11/23 05:56:56;;;;;;;80.50;35.90;;;;;;;1.57;95.07;99252.42;103164;1301;22531;-59
2022/11/23 05:59:27;;;;;;;79.00;35.60;;;;;;;1.56;95.10;99255.98;103106;1282;22873;-59
2022/11/23 06:01:59;;;;;;;78.20;36.60;;;;;;;1.56;95.16;99260.95;103242;1281;22479;-58
2022/11/23 06:04:31;;;;;;;84.80;36.70;;;;;;;1.57;95.18;99268.10;103043;1305;22471;-59
2022/11/23 06:07:04;;;;;;;75.00;34.30;;;;;;;1.58;95.24;99273.95;103128;1276;25224;-59
2022/11/23 06:09:36;;;;;;;79.90;35.80;;;;;;;1.58;95.18;99276.39;103106;1299;24217;-57
2022/11/23 06:12:08;;;;;;;77.40;36.00;;;;;;;1.57;95.12;99279.57;103140;1287;22947;-58
2022/11/23 06:14:40;;;;;;;81.10;37.90;;;;;;;1.58;95.24;99281.65;103084;1282;22601;-57
2022/11/23 06:17:11;;;;;;;73.80;35.60;;;;;;;1.60;95.35;99286.20;103078;1282;22499;-57
2022/11/23 06:19:43;;;;;;;77.60;35.60;;;;;;;1.63;95.36;99288.01;103153;1282;22566;-60
2022/11/23 06:22:16;;;;;;;80.20;34.50;;;;;;;1.64;95.34;99297.40;103041;1282;22486;-62
2022/11/23 06:24:47;;;;;;;80.10;37.00;;;;;;;1.66;95.49;99300.17;103150;1306;22469;-61
2022/11/23 06:27:19;;;;;;;82.90;36.10;;;;;;;1.67;95.50;99301.07;103141;1282;24215;-60
2022/11/23 06:29:51;;;;;;;73.60;33.20;;;;;;;1.70;95.46;99304.63;103110;1284;25262;-57
2022/11/23 06:32:23;;;;;;;80.10;35.10;;;;;;;1.70;95.41;99307.74;103141;1278;25516;-58
2022/11/23 06:34:54;;;;;;;77.10;35.60;;;;;;;1.69;95.41;99308.41;103113;1280;23215;-56
2022/11/23 06:37:26;;;;;;;77.20;34.90;;;;;;;1.71;95.45;99312.84;103015;1282;25500;-61
2022/11/23 06:39:57;;;;;;;70.40;34.40;;;;;;;1.71;95.39;99314.96;103107;1288;22533;-58
2022/11/23 06:42:29;;;;;;;83.00;38.90;;;;;;;1.72;95.58;99319.08;103024;1282;25634;-59
2022/11/23 06:45:01;;;;;;;232.70;124.30;;;;;;;1.74;95.59;99318.08;103094;1282;22466;-58
2022/11/23 06:47:32;;;;;;;262.20;157.70;;;;;;;1.77;95.59;99320.04;103073;1274;24240;-57
2022/11/23 06:50:04;;;;;;;214.60;132.30;;;;;;;1.79;95.65;99324.84;103195;1278;25299;-58
2022/11/23 06:52:36;;;;;;;165.90;96.70;;;;;;;1.81;95.64;99325.55;103421;1287;26504;-60
2022/11/23 06:55:08;;;;;;;136.20;80.50;;;;;;;1.81;95.59;99327.43;103273;1282;22682;-60
2022/11/23 06:57:40;;;;;;;137.20;71.30;;;;;;;1.83;95.70;99330.36;103174;1282;22471;-58
2022/11/23 07:00:14;;;;;;;156.20;81.30;;;;;;;1.84;95.63;99329.54;103288;1275;22529;-57
2022/11/23 07:02:50;;;;;;;152.50;82.80;;;;;;;1.85;95.56;99330.71;103095;1298;22522;-58
2022/11/23 07:05:24;;;;;;;174.30;81.50;;;;;;;1.87;95.70;99331.11;103058;1275;25474;-60
2022/11/23 07:07:56;;;;;;;148.10;69.10;;;;;;;1.88;95.68;99334.05;103083;1282;23935;-56
2022/11/23 07:10:28;;;;;;;108.20;51.80;;;;;;;1.90;95.63;99334.56;103011;1306;25378;-58
2022/11/23 07:13:05;;;;;;;101.30;46.50;;;;;;;1.91;95.64;99340.88;103117;1281;22471;-57
2022/11/23 07:15:40;;;;;;;123.70;51.90;;;;;;;1.92;95.66;99338.02;103108;1305;22475;-58
2022/11/23 07:18:12;;;;;;;113.10;50.00;;;;;;;1.93;95.56;99341.67;103106;1287;25530;-57
2022/11/23 07:20:43;;;;;;;101.90;46.40;;;;;;;1.96;95.69;99336.23;103022;1275;22495;-60
2022/11/23 07:23:14;;;;;;;102.20;46.00;;;;;;;1.97;95.63;99333.13;103015;1284;24902;-58
2022/11/23 07:25:46;;;;;;;97.80;45.30;;;;;;;1.98;95.75;99332.39;103026;1281;25287;-59
2022/11/23 07:28:18;;;;;;;94.10;44.20;;;;;;;1.99;95.61;99330.00;103124;1274;23988;-58
2022/11/23 07:30:52;;;;;;;107.00;48.60;;;;;;;1.99;95.62;99331.48;103149;1306;25426;-61
2022/11/23 07:33:24;;;;;;;99.90;47.50;;;;;;;2.00;95.64;99333.27;103172;1274;24423;-57
2022/11/23 07:35:55;;;;;;;100.50;46.50;;;;;;;2.01;95.60;99335.29;103129;1281;22595;-59
2022/11/23 07:38:26;;;;;;;92.50;46.30;;;;;;;2.02;95.61;99337.54;103119;1275;22890;-58
2022/11/23 07:41:00;;;;;;;96.40;41.90;;;;;;;2.03;95.74;99343.98;103093;1282;24238;-59
2022/11/23 07:43:32;;;;;;;86.40;41.20;;;;;;;2.03;95.81;99348.50;103055;1281;22481;-59
2022/11/23 07:46:04;;;;;;;103.30;47.80;;;;;;;2.04;95.82;99352.65;103114;1306;22474;-57
2022/11/23 07:48:35;;;;;;;92.40;42.50;;;;;;;2.06;95.84;99354.95;103171;1288;22467;-57
2022/11/23 07:51:07;;;;;;;97.90;41.80;;;;;;;2.08;95.81;99356.14;103141;1306;24418;-57
2022/11/23 07:53:39;;;;;;;90.50;42.90;;;;;;;2.11;95.87;99361.94;103072;1278;24224;-57
2022/11/23 07:56:11;;;;;;;89.30;44.30;;;;;;;2.12;95.86;99365.60;103237;1282;22488;-61
2022/11/23 07:58:42;;;;;;;91.50;41.10;;;;;;;2.12;95.92;99371.49;103173;1282;22474;-60
2022/11/23 08:01:17;;;;;;;91.30;43.40;;;;;;;2.13;95.98;99375.09;103161;1282;25570;-60
2022/11/23 08:03:49;;;;;;;89.20;41.90;;;;;;;2.13;96.01;99376.56;103120;1303;22519;-57
2022/11/23 08:06:21;;;;;;;90.80;44.60;;;;;;;2.15;95.98;99379.22;103064;1274;25508;-58
2022/11/23 08:08:54;;;;;;;89.50;42.50;;;;;;;2.16;96.00;99385.04;103225;1279;25327;-58
2022/11/23 08:11:26;;;;;;;95.10;42.00;;;;;;;2.19;96.11;99383.55;103156;1282;24030;-56
2022/11/23 08:13:57;;;;;;;89.60;42.30;;;;;;;2.21;96.03;99388.50;103142;1281;22491;-61
2022/11/23 08:16:29;;;;;;;84.30;40.50;;;;;;;2.24;96.02;99389.29;103003;1281;24428;-58
2022/11/23 08:19:02;;;;;;;88.90;42.20;;;;;;;2.26;96.07;99388.36;103098;1306;22525;-59
2022/11/23 08:21:33;;;;;;;84.60;40.40;;;;;;;2.29;96.05;99385.42;103080;1306;22479;-61
2022/11/23 08:24:05;;;;;;;95.00;43.30;;;;;;;2.32;96.07;99388.06;103011;1282;22490;-61
2022/11/23 08:26:37;;;;;;;83.30;38.30;;;;;;;2.35;96.06;99385.61;103121;1282;22494;-58
2022/11/23 08:29:09;;;;;;;88.40;43.80;;;;;;;2.35;95.83;99382.13;103126;1282;25481;-58
2022/11/23 08:31:43;;;;;;;88.10;42.20;;;;;;;2.36;95.93;99377.85;103127;1304;24423;-57
2022/11/23 08:34:16;;;;;;;82.40;39.40;;;;;;;2.39;95.95;99375.80;103060;1281;22840;-59
2022/11/23 08:36:48;;;;;;;76.80;37.80;;;;;;;2.42;95.92;99374.84;103287;1306;22956;-59
2022/11/23 08:39:20;;;;;;;84.20;41.50;;;;;;;2.43;95.90;99375.65;103067;1282;22484;-57
2022/11/23 08:41:52;;;;;;;83.20;39.40;;;;;;;2.45;95.92;99376.27;103100;1281;22474;-60
2022/11/23 08:44:24;;;;;;;82.20;40.10;;;;;;;2.49;95.99;99373.34;103018;1281;22478;-63
2022/11/23 08:46:56;;;;;;;85.30;41.70;;;;;;;2.52;95.96;99371.26;103156;1306;22501;-59
2022/11/23 08:49:28;;;;;;;84.50;39.90;;;;;;;2.56;96.01;99372.75;103103;1306;24318;-57
2022/11/23 08:52:00;;;;;;;101.50;42.50;;;;;;;2.59;95.93;99366.70;103208;1299;25384;-59
2022/11/23 08:54:31;;;;;;;84.50;37.80;;;;;;;2.62;95.90;99362.42;103295;1283;22605;-58
2022/11/23 08:57:03;;;;;;;77.20;33.70;;;;;;;2.65;95.78;99358.64;103139;1281;22473;-58
2022/11/23 08:59:34;;;;;;;104.40;44.90;;;;;;;2.65;95.59;99355.20;103214;1303;24234;-57
2022/11/23 09:02:06;;;;;;;107.40;46.70;;;;;;;2.69;95.84;99354.08;103198;1282;25441;-58
2022/11/23 09:04:39;;;;;;;89.60;41.50;;;;;;;2.71;95.68;99352.17;103053;1278;27543;-58
2022/11/23 09:07:11;;;;;;;82.60;40.00;;;;;;;2.75;95.64;99356.20;103126;1281;24179;-58
2022/11/23 09:09:44;;;;;;;93.20;39.70;;;;;;;2.79;95.73;99351.58;103165;1291;22462;-58
2022/11/23 09:12:16;;;;;;;81.90;37.30;;;;;;;2.79;95.25;99343.62;103126;1281;22476;-58
2022/11/23 09:14:48;;;;;;;79.40;33.50;;;;;;;2.78;95.36;99343.02;102999;1292;22977;-57
2022/11/23 09:17:20;;;;;;;97.50;39.20;;;;;;;2.80;95.39;99343.29;103129;1282;22526;-58
2022/11/23 09:19:52;;;;;;;101.30;42.80;;;;;;;2.80;95.32;99344.91;103108;1282;24218;-57
2022/11/23 09:22:24;;;;;;;97.50;40.70;;;;;;;2.83;95.47;99351.67;103090;1281;22522;-61
2022/11/23 09:24:56;;;;;;;84.60;37.40;;;;;;;2.87;95.69;99362.63;103158;1306;22680;-58
2022/11/23 09:27:27;;;;;;;85.20;39.60;;;;;;;2.89;95.75;99365.14;103329;1282;22481;-58
2022/11/23 09:29:59;;;;;;;104.40;46.70;;;;;;;2.92;95.69;99360.77;103159;1282;24358;-58
2022/11/23 09:32:32;;;;;;;99.60;45.20;;;;;;;2.95;95.52;99357.15;103205;1281;22470;-59
2022/11/23 09:35:04;;;;;;;90.20;41.30;;;;;;;2.98;95.59;99349.16;103080;1285;25214;-57
2022/11/23 09:37:35;;;;;;;81.60;36.50;;;;;;;3.00;95.33;99342.85;103322;1282;22462;-57
2022/11/23 09:40:10;;;;;;;74.60;34.10;;;;;;;3.01;95.25;99336.05;103077;1306;24582;-61
2022/11/23 09:42:52;;;;;;;72.80;33.60;;;;;;;3.00;94.94;99326.40;103178;1292;25459;-58
2022/11/23 09:45:34;;;;;;;70.70;34.80;;;;;;;3.00;95.11;99328.77;103166;1280;22517;-62
2022/11/23 09:48:26;;;;;;;75.60;32.90;;;;;;;2.98;94.67;99329.61;103130;1306;25412;-58
2022/11/23 09:51:02;;;;;;;70.80;32.80;;;;;;;2.95;94.75;99327.23;103054;1282;22553;-58
2022/11/23 09:53:36;;;;;;;70.40;30.30;;;;;;;2.96;94.84;99323.31;103004;1282;22483;-60
2022/11/23 09:56:16;;;;;;;70.00;30.40;;;;;;;2.96;94.78;99322.67;103053;1282;22461;-58
2022/11/23 09:58:49;;;;;;;79.00;33.20;;;;;;;2.99;95.04;99322.98;103063;1281;22476;-58
2022/11/23 10:01:21;;;;;;;77.60;33.60;;;;;;;3.03;95.08;99318.18;103065;1274;22472;-59
2022/11/23 10:03:53;;;;;;;90.10;36.80;;;;;;;3.06;95.17;99307.57;103199;1292;25277;-57
2022/11/23 10:06:27;;;;;;;77.10;36.50;;;;;;;3.09;95.12;99314.23;103078;1282;22475;-58
2022/11/23 10:09:09;;;;;;;100.10;45.70;;;;;;;3.12;95.05;99315.23;103116;1281;25534;-59
2022/11/23 10:12:07;;;;;;;95.00;40.70;;;;;;;3.14;95.06;99319.42;103096;1284;24045;-58
2022/11/23 10:14:57;;;;;;;80.00;36.90;;;;;;;3.15;94.92;99312.92;103110;1281;22866;-60
2022/11/23 10:17:41;;;;;;;104.00;43.90;;;;;;;3.12;94.87;99316.23;103071;1282;25535;-57
2022/11/23 10:20:29;;;;;;;91.40;40.60;;;;;;;3.14;94.98;99315.80;103034;1280;22492;-58
2022/11/23 10:23:03;;;;;;;81.40;35.40;;;;;;;3.13;94.69;99311.95;103092;1294;26484;-57
2022/11/23 10:25:40;;;;;;;89.40;37.40;;;;;;;3.12;94.98;99311.83;102979;1292;22480;-57
2022/11/23 10:28:16;;;;;;;75.10;31.50;;;;;;;3.15;94.96;99309.04;103049;1281;23098;-60
2022/11/23 10:30:55;;;;;;;78.10;32.40;;;;;;;3.16;94.77;99306.56;103060;1282;25240;-58
2022/11/23 10:33:36;;;;;;;97.40;38.40;;;;;;;3.18;94.90;99307.30;103108;1282;25291;-57
2022/11/23 10:36:09;;;;;;;;;;;;;;;3.20;94.81;99307.52;103175;1282;22717;-56
2022/11/23 10:38:43;;;;;;;80.70;32.90;;;;;;;3.23;94.98;99301.56;103205;1285;22481;-56
2022/11/23 10:41:16;;;;;;;78.40;31.30;;;;;;;3.26;94.84;99302.38;102993;1306;22620;-56
2022/11/23 10:43:51;;;;;;;71.70;30.20;;;;;;;3.29;94.73;99302.84;103007;1281;22528;-57
2022/11/23 10:46:29;;;;;;;73.80;27.90;;;;;;;3.31;94.65;99294.25;103054;1277;22464;-57
2022/11/23 10:49:16;;;;;;;81.40;31.60;;;;;;;3.34;94.67;99285.46;103077;1306;24250;-58
2022/11/23 10:51:58;;;;;;;69.50;29.80;;;;;;;3.41;94.72;99287.73;103095;1305;22479;-58
2022/11/23 10:54:33;;;;;;;84.40;34.10;;;;;;;3.46;94.55;99294.78;103286;1281;22750;-59
2022/11/23 10:57:21;;;;;;;76.80;32.60;;;;;;;3.50;94.48;99296.66;103105;1282;22478;-58
2022/11/23 11:00:01;;;;;;;71.30;29.90;;;;;;;3.55;94.44;99299.08;103229;1282;22871;-59
2022/11/23 11:02:42;;;;;;;69.20;28.30;;;;;;;3.60;94.31;99301.79;103246;1282;23036;-58
2022/11/23 11:05:29;;;;;;;66.00;27.30;;;;;;;3.67;94.51;99302.42;103179;1285;22465;-57
2022/11/23 11:08:12;;;;;;;65.60;27.20;;;;;;;3.74;94.47;99306.41;103142;1306;24302;-57
2022/11/23 11:10:48;;;;;;;60.40;25.80;;;;;;;3.81;94.38;99306.86;103323;1305;23915;-57
2022/11/23 11:13:26;;;;;;;69.30;27.90;;;;;;;3.86;94.45;99307.73;103050;1282;22526;-55
2022/11/23 11:16:00;;;;;;;61.20;26.10;;;;;;;3.93;94.27;99309.67;103088;1294;22468;-57
2022/11/23 11:18:33;;;;;;;63.30;26.70;;;;;;;3.99;94.21;99308.73;103176;1282;25849;-56
2022/11/23 11:21:17;;;;;;;70.30;30.30;;;;;;;4.06;94.18;99302.66;103092;1282;25493;-57
2022/11/23 11:23:54;;;;;;;61.30;28.80;;;;;;;4.15;94.22;99296.23;103073;1297;22564;-54
2022/11/23 11:26:27;;;;;;;59.40;26.20;;;;;;;4.22;93.73;99288.99;103165;1281;22475;-59
2022/11/23 11:29:01;;;;;;;55.60;24.40;;;;;;;4.28;93.63;99283.51;103198;1285;22597;-57
2022/11/23 11:31:52;;;;;;;59.70;26.50;;;;;;;4.33;92.95;99286.24;103093;1280;24288;-59
2022/11/23 11:34:30;;;;;;;72.20;31.50;;;;;;;4.40;93.45;99290.11;103155;1281;24234;-58
2022/11/23 11:37:10;;;;;;;56.50;27.10;;;;;;;4.48;93.42;99293.30;103116;1306;22474;-57
2022/11/23 11:39:46;;;;;;;53.00;22.70;;;;;;;4.56;93.30;99292.41;103098;1306;22475;-60
2022/11/23 11:42:21;;;;;;;60.80;25.70;;;;;;;4.61;92.72;99285.39;103138;1281;22475;-56
2022/11/23 11:44:57;;;;;;;68.20;28.00;;;;;;;4.66;92.95;99278.92;103175;1288;22474;-56